Time;durP1;ratioP1;P1;durP2;ratioP2;P2;SDS_P1;SDS_P2;PMS_P1;PMS_P2;Temp;Humidity;BMP_temperature;BMP_pressure;BME280_temperature;BME280_humidity;BME280_pressure;Samples;Min_cycle;Max_cycle;Signal;HPM_P1;HPM_P2
2023/12/17 00:00:39;;;;;;;12.63;6.95;;;9.40;99.90;;;;;;5050663;28;20048;-80
2023/12/17 00:03:05;;;;;;;14.70;7.07;;;9.40;99.90;;;;;;5049065;28;20033;-80
2023/12/17 00:05:30;;;;;;;14.82;6.25;;;9.40;99.90;;;;;;5047517;28;20413;-80
2023/12/17 00:07:56;;;;;;;11.55;6.57;;;9.40;99.90;;;;;;5065802;28;20037;-80
2023/12/17 00:10:22;;;;;;;11.80;6.78;;;9.60;99.90;;;;;;5050454;28;20042;-80
2023/12/17 00:12:47;;;;;;;14.18;7.13;;;9.50;99.90;;;;;;5050969;28;20040;-80
2023/12/17 00:15:13;;;;;;;12.70;6.43;;;9.50;99.90;;;;;;5051220;28;20045;-80
2023/12/17 00:17:39;;;;;;;11.02;6.03;;;9.50;99.90;;;;;;5050517;28;20504;-79
2023/12/17 00:20:05;;;;;;;9.50;6.45;;;9.50;99.90;;;;;;5049002;28;20917;-79
2023/12/17 00:22:30;;;;;;;11.77;6.22;;;9.50;99.90;;;;;;5044830;28;20140;-80
2023/12/17 00:24:56;;;;;;;10.48;5.97;;;9.50;99.90;;;;;;5046485;28;20087;-80
2023/12/17 00:27:21;;;;;;;14.18;6.50;;;9.50;99.90;;;;;;5039824;28;20030;-80
2023/12/17 00:29:47;;;;;;;11.88;6.15;;;9.50;99.90;;;;;;5046609;28;20041;-80
2023/12/17 00:32:13;;;;;;;12.90;5.75;;;9.60;99.90;;;;;;5050679;28;20051;-80
2023/12/17 00:34:38;;;;;;;13.13;7.40;;;9.60;99.90;;;;;;5051285;28;20044;-80
2023/12/17 00:37:04;;;;;;;11.15;6.60;;;9.50;99.90;;;;;;5051062;28;20037;-79
2023/12/17 00:39:30;;;;;;;11.57;6.53;;;9.50;99.90;;;;;;5050944;28;20073;-80
2023/12/17 00:41:55;;;;;;;10.77;6.28;;;9.60;99.90;;;;;;5033029;28;20411;-80
2023/12/17 00:44:21;;;;;;;15.00;6.07;;;9.60;99.90;;;;;;5043509;28;20039;-80
2023/12/17 00:46:46;;;;;;;10.60;5.50;;;9.60;99.90;;;;;;5050299;28;20404;-80
2023/12/17 00:49:12;;;;;;;11.90;6.82;;;9.60;99.90;;;;;;5031304;28;20033;-79
2023/12/17 00:51:38;;;;;;;12.05;6.43;;;9.60;99.90;;;;;;5081105;28;20124;-80
2023/12/17 00:54:04;;;;;;;12.73;6.13;;;9.60;99.90;;;;;;5047482;28;20095;-80
2023/12/17 00:56:30;;;;;;;10.85;6.03;;;9.60;99.90;;;;;;5050711;28;20516;-79
2023/12/17 00:58:55;;;;;;;16.58;6.30;;;9.60;99.90;;;;;;5050460;28;20041;-80
2023/12/17 01:01:21;;;;;;;12.18;6.70;;;9.70;99.90;;;;;;5047236;28;20039;-80
2023/12/17 01:03:46;;;;;;;14.50;5.80;;;9.60;99.90;;;;;;5048056;28;20496;-81
2023/12/17 01:06:12;;;;;;;12.88;6.43;;;9.60;99.90;;;;;;5024644;28;20033;-80
2023/12/17 01:08:38;;;;;;;9.90;5.65;;;9.70;99.90;;;;;;5048939;28;20112;-80
2023/12/17 01:11:04;;;;;;;13.18;5.93;;;9.60;99.90;;;;;;5050037;28;20500;-79
2023/12/17 01:13:29;;;;;;;11.70;5.95;;;9.60;99.90;;;;;;5049915;28;20103;-80
2023/12/17 01:15:55;;;;;;;9.50;5.80;;;9.60;99.90;;;;;;5024413;28;20056;-80
2023/12/17 01:18:20;;;;;;;9.45;5.30;;;9.60;99.90;;;;;;5050146;28;20456;-80
2023/12/17 01:20:46;;;;;;;11.50;5.57;;;9.60;99.90;;;;;;5048741;28;20087;-81
2023/12/17 01:23:12;;;;;;;12.05;5.60;;;9.60;99.90;;;;;;5050229;28;20121;-80
2023/12/17 01:25:37;;;;;;;9.48;5.65;;;9.50;99.90;;;;;;5048252;28;20115;-80
2023/12/17 01:28:03;;;;;;;9.73;5.40;;;9.60;99.90;;;;;;5048437;28;20560;-80
2023/12/17 01:30:28;;;;;;;11.52;6.82;;;9.60;99.90;;;;;;5049147;28;20090;-79
2023/12/17 01:32:54;;;;;;;9.88;6.07;;;9.60;99.90;;;;;;5048671;28;20041;-80
2023/12/17 01:35:20;;;;;;;10.82;5.35;;;9.60;99.90;;;;;;5048221;28;20191;-80
2023/12/17 01:37:45;;;;;;;11.38;5.93;;;9.60;99.90;;;;;;5027412;28;20041;-79
2023/12/17 01:40:11;;;;;;;9.93;5.78;;;9.50;99.90;;;;;;5049668;28;20062;-80
2023/12/17 01:42:37;;;;;;;13.73;6.50;;;9.60;99.90;;;;;;5045663;28;20041;-80
2023/12/17 01:45:03;;;;;;;11.13;5.85;;;9.60;99.90;;;;;;5044942;28;20516;-79
2023/12/17 01:47:29;;;;;;;11.65;5.93;;;9.50;99.90;;;;;;5049967;28;20033;-80
2023/12/17 01:49:55;;;;;;;12.57;6.10;;;9.50;99.90;;;;;;5049298;28;20037;-80
2023/12/17 01:52:21;;;;;;;13.35;6.82;;;9.60;99.90;;;;;;5049809;28;20492;-80
2023/12/17 01:54:47;;;;;;;11.93;5.57;;;9.50;99.90;;;;;;5043005;28;20483;-81
2023/12/17 01:57:13;;;;;;;11.00;5.50;;;9.50;99.90;;;;;;5048114;28;20056;-80
2023/12/17 01:59:39;;;;;;;9.45;5.80;;;9.50;99.90;;;;;;5043985;28;20495;-80
2023/12/17 02:02:05;;;;;;;11.68;6.22;;;9.50;99.90;;;;;;5042000;28;20038;-80
2023/12/17 02:04:31;;;;;;;8.88;5.75;;;9.50;99.90;;;;;;5042744;28;20102;-80
2023/12/17 02:06:56;;;;;;;12.38;5.97;;;9.50;99.90;;;;;;5047339;28;20049;-80
2023/12/17 02:09:22;;;;;;;11.02;5.78;;;9.50;99.90;;;;;;5043211;28;20044;-80
2023/12/17 02:11:48;;;;;;;8.70;5.32;;;9.60;99.90;;;;;;5049310;28;20505;-80
2023/12/17 02:14:13;;;;;;;10.27;6.05;;;9.60;99.90;;;;;;5045535;28;20044;-80
2023/12/17 02:16:39;;;;;;;12.57;6.68;;;9.60;99.90;;;;;;5037905;28;20083;-80
2023/12/17 02:19:04;;;;;;;15.82;6.13;;;9.60;99.90;;;;;;5048659;28;20047;-80
2023/12/17 02:21:30;;;;;;;10.75;5.75;;;9.60;99.90;;;;;;5029428;28;20536;-80
2023/12/17 02:23:56;;;;;;;12.02;5.13;;;9.60;99.90;;;;;;5045340;28;20041;-80
2023/12/17 02:26:21;;;;;;;13.23;5.18;;;9.50;99.90;;;;;;5032963;28;20164;-81
2023/12/17 02:28:47;;;;;;;9.80;5.43;;;9.50;99.90;;;;;;5045524;28;20106;-79
2023/12/17 02:31:13;;;;;;;11.00;5.95;;;9.50;99.90;;;;;;5044362;28;20072;-80
2023/12/17 02:33:39;;;;;;;14.18;6.30;;;9.50;99.90;;;;;;5043513;28;20123;-80
2023/12/17 02:36:05;;;;;;;10.77;5.15;;;9.50;99.90;;;;;;5047160;28;20083;-80
2023/12/17 02:38:30;;;;;;;9.55;5.22;;;9.50;99.90;;;;;;5052117;28;20036;-80
2023/12/17 02:40:56;;;;;;;9.20;5.10;;;9.50;99.90;;;;;;5052955;28;20029;-80
2023/12/17 02:43:21;;;;;;;14.52;5.75;;;9.50;99.90;;;;;;5053316;28;20549;-81
2023/12/17 02:45:47;;;;;;;11.50;5.40;;;9.50;99.90;;;;;;5052707;28;20087;-80
2023/12/17 02:48:13;;;;;;;11.27;6.05;;;9.50;99.90;;;;;;5053015;28;20029;-80
2023/12/17 02:50:38;;;;;;;12.63;5.38;;;9.50;99.90;;;;;;5051400;28;20129;-81
2023/12/17 02:53:04;;;;;;;10.07;5.43;;;9.50;99.90;;;;;;5036469;28;20037;-80
2023/12/17 02:55:29;;;;;;;10.73;4.95;;;9.50;99.90;;;;;;5051839;28;20468;-79
2023/12/17 02:57:55;;;;;;;10.50;5.30;;;9.50;99.90;;;;;;5052378;28;20037;-80
2023/12/17 03:00:21;;;;;;;9.68;5.10;;;9.50;99.90;;;;;;5044454;28;20029;-80
2023/12/17 03:02:46;;;;;;;10.30;5.45;;;9.60;99.90;;;;;;5049818;28;20167;-80
2023/12/17 03:05:12;;;;;;;12.70;5.15;;;9.50;99.90;;;;;;5051988;28;20558;-80
2023/12/17 03:07:37;;;;;;;13.50;5.57;;;9.50;99.90;;;;;;5045374;28;20048;-80
2023/12/17 03:10:03;;;;;;;11.45;5.43;;;9.50;99.90;;;;;;5052318;28;20041;-80
2023/12/17 03:12:29;;;;;;;10.43;5.57;;;9.50;99.90;;;;;;5052669;28;20040;-80
2023/12/17 03:14:54;;;;;;;9.77;5.43;;;9.60;99.90;;;;;;5052916;28;20036;-80
2023/12/17 03:17:20;;;;;;;11.35;5.03;;;9.50;99.90;;;;;;5053210;28;20037;-80
2023/12/17 03:19:46;;;;;;;17.50;6.38;;;9.50;99.90;;;;;;5079357;28;20041;-80
2023/12/17 03:22:11;;;;;;;8.40;5.20;;;9.50;99.90;;;;;;5051462;28;20408;-80
2023/12/17 03:24:37;;;;;;;15.38;5.90;;;9.60;99.90;;;;;;5050922;28;20466;-80
2023/12/17 03:27:03;;;;;;;12.27;5.68;;;9.60;99.90;;;;;;5047843;28;20041;-80
2023/12/17 03:29:29;;;;;;;13.52;5.50;;;9.60;99.90;;;;;;5047043;28;20482;-80
2023/12/17 03:31:54;;;;;;;14.50;6.10;;;9.60;99.90;;;;;;5051095;28;20044;-81
2023/12/17 03:34:20;;;;;;;11.15;5.85;;;9.60;99.90;;;;;;5052717;28;20147;-80
2023/12/17 03:36:45;;;;;;;10.27;5.35;;;9.60;99.90;;;;;;5066820;28;20048;-80
2023/12/17 03:39:13;;;;;;;10.55;4.78;;;9.60;99.90;;;;;;5068361;28;20064;-80
2023/12/17 03:41:38;;;;;;;12.05;5.50;;;9.60;99.90;;;;;;5051456;28;20041;-80
2023/12/17 03:44:04;;;;;;;13.98;5.57;;;9.60;99.90;;;;;;5052154;28;20629;-80
2023/12/17 03:46:30;;;;;;;14.30;5.93;;;9.50;99.90;;;;;;5052938;28;20029;-80
2023/12/17 03:48:55;;;;;;;11.00;5.22;;;9.50;99.90;;;;;;5052648;28;20037;-79
2023/12/17 03:51:21;;;;;;;14.02;6.78;;;9.50;99.90;;;;;;5051201;28;20070;-80
2023/12/17 03:53:46;;;;;;;10.57;5.90;;;9.40;99.90;;;;;;5052179;28;20036;-81
2023/12/17 03:56:14;;;;;;;14.18;6.60;;;9.40;99.90;;;;;;5052290;28;20032;-79
2023/12/17 03:58:41;;;;;;;13.20;6.70;;;9.40;99.90;;;;;;5034975;28;20103;-81
2023/12/17 04:01:07;;;;;;;13.77;6.43;;;9.40;99.90;;;;;;5052280;28;20056;-80
2023/12/17 04:03:33;;;;;;;12.80;6.82;;;9.40;99.90;;;;;;5052260;28;20037;-81
2023/12/17 04:06:00;;;;;;;13.88;6.50;;;9.30;99.90;;;;;;5047746;28;20117;-81
2023/12/17 04:08:27;;;;;;;12.00;7.07;;;9.30;99.90;;;;;;5034792;28;20061;-80
2023/12/17 04:10:52;;;;;;;12.98;6.90;;;9.30;99.90;;;;;;5048333;28;20071;-80
2023/12/17 04:13:18;;;;;;;16.85;7.50;;;9.30;99.90;;;;;;5034492;28;20048;-79
2023/12/17 04:15:44;;;;;;;11.75;7.13;;;9.30;99.90;;;;;;5034748;28;20032;-80
2023/12/17 04:18:09;;;;;;;17.42;8.18;;;9.30;99.90;;;;;;5052384;28;20119;-80
2023/12/17 04:20:35;;;;;;;16.27;8.65;;;9.30;99.90;;;;;;5046784;28;20067;-80
2023/12/17 04:23:01;;;;;;;17.20;7.60;;;9.30;99.90;;;;;;5042862;28;20045;-80
2023/12/17 04:25:26;;;;;;;15.77;8.15;;;9.30;99.90;;;;;;5034545;28;20029;-80
2023/12/17 04:27:52;;;;;;;13.98;7.28;;;9.30;99.90;;;;;;5056817;28;20116;-80
2023/12/17 04:30:18;;;;;;;18.52;7.85;;;9.30;99.90;;;;;;5049669;28;20032;-80
2023/12/17 04:32:43;;;;;;;16.00;8.50;;;9.40;99.90;;;;;;5047208;28;20041;-80
2023/12/17 04:35:09;;;;;;;17.27;7.55;;;9.40;99.90;;;;;;5044117;28;20404;-80
2023/12/17 04:37:35;;;;;;;16.50;8.50;;;9.40;99.90;;;;;;5051831;28;20119;-80
2023/12/17 04:40:01;;;;;;;15.05;8.27;;;9.40;99.90;;;;;;5050739;28;20055;-79
2023/12/17 04:42:28;;;;;;;13.88;7.78;;;9.30;99.90;;;;;;5044915;28;20044;-79
2023/12/17 04:44:54;;;;;;;12.30;7.90;;;9.40;99.90;;;;;;5051444;28;20408;-81
2023/12/17 04:47:19;;;;;;;14.95;8.15;;;9.40;99.90;;;;;;5050312;28;20041;-80
2023/12/17 04:49:46;;;;;;;16.52;7.72;;;9.30;99.90;;;;;;5049166;28;20029;-80
2023/12/17 04:52:11;;;;;;;18.40;8.43;;;9.40;99.90;;;;;;5048867;28;20419;-80
2023/12/17 04:54:37;;;;;;;14.85;8.48;;;9.50;99.90;;;;;;5051421;28;20128;-80
2023/12/17 04:57:02;;;;;;;14.82;7.07;;;9.40;99.90;;;;;;5033417;28;20048;-80
2023/12/17 04:59:28;;;;;;;15.68;7.93;;;9.40;99.90;;;;;;5050303;28;20135;-80
2023/12/17 05:01:54;;;;;;;13.50;7.78;;;9.40;99.90;;;;;;5033948;28;20041;-79
2023/12/17 05:04:19;;;;;;;15.50;8.13;;;9.40;99.90;;;;;;5050980;28;20071;-80
2023/12/17 05:06:45;;;;;;;15.13;7.10;;;9.40;99.90;;;;;;5049794;28;20397;-80
2023/12/17 05:09:11;;;;;;;15.52;7.47;;;9.40;99.90;;;;;;5050033;28;20441;-80
2023/12/17 05:11:36;;;;;;;14.45;7.47;;;9.40;99.90;;;;;;5084550;28;20041;-79
2023/12/17 05:14:02;;;;;;;12.70;7.72;;;9.40;99.90;;;;;;5050082;28;20037;-79
2023/12/17 05:16:28;;;;;;;16.65;8.13;;;9.30;99.90;;;;;;5051396;28;20425;-80
2023/12/17 05:18:53;;;;;;;13.15;7.03;;;9.40;99.90;;;;;;5047285;28;20033;-80
2023/12/17 05:21:19;;;;;;;17.48;7.65;;;9.30;99.90;;;;;;5050247;28;20037;-80
2023/12/17 05:23:44;;;;;;;13.45;7.03;;;9.30;99.90;;;;;;5033470;28;20036;-81
2023/12/17 05:26:10;;;;;;;12.82;7.32;;;9.30;99.90;;;;;;5050744;28;20123;-80
2023/12/17 05:28:37;;;;;;;13.07;8.00;;;9.30;99.90;;;;;;5050348;28;20148;-80
2023/12/17 05:31:04;;;;;;;14.82;8.52;;;9.30;99.90;;;;;;5050009;28;20052;-80
2023/12/17 05:33:30;;;;;;;13.95;7.97;;;9.20;99.90;;;;;;5049744;28;20086;-79
2023/12/17 05:35:55;;;;;;;20.08;8.10;;;9.30;99.90;;;;;;5077407;28;20037;-80
2023/12/17 05:38:21;;;;;;;14.35;7.93;;;9.30;99.90;;;;;;5045852;28;20029;-80
2023/12/17 05:40:47;;;;;;;17.35;8.23;;;9.30;99.90;;;;;;5050379;28;20443;-80
2023/12/17 05:43:13;;;;;;;12.27;8.00;;;9.30;99.90;;;;;;5083732;28;20047;-80
2023/12/17 05:45:39;;;;;;;13.27;7.82;;;9.30;99.90;;;;;;5048451;28;20373;-80
2023/12/17 05:48:08;;;;;;;14.35;8.10;;;9.20;99.90;;;;;;5049873;28;20048;-80
2023/12/17 05:50:34;;;;;;;13.93;8.23;;;9.20;99.90;;;;;;5049651;28;20071;-80
2023/12/17 05:52:59;;;;;;;12.70;8.10;;;9.20;99.90;;;;;;5049766;28;20045;-79
2023/12/17 05:55:25;;;;;;;16.23;8.57;;;9.20;99.90;;;;;;5049253;28;20029;-79
2023/12/17 05:57:51;;;;;;;18.05;8.00;;;9.30;99.90;;;;;;5050320;28;20040;-80
2023/12/17 06:00:17;;;;;;;13.13;8.23;;;9.20;99.90;;;;;;5047063;28;20037;-79
2023/12/17 06:02:42;;;;;;;16.77;9.85;;;9.20;99.90;;;;;;5033435;28;20104;-79
2023/12/17 06:05:08;;;;;;;17.23;9.25;;;9.30;99.90;;;;;;5053387;28;20025;-79
2023/12/17 06:07:34;;;;;;;17.05;9.70;;;9.20;99.90;;;;;;5052639;28;20077;-81
2023/12/17 06:10:00;;;;;;;14.20;9.55;;;9.20;99.90;;;;;;5052033;28;20516;-79
2023/12/17 06:12:25;;;;;;;18.30;9.82;;;9.20;99.90;;;;;;5050016;28;20037;-80
2023/12/17 06:14:51;;;;;;;18.02;9.73;;;9.20;99.90;;;;;;5053521;28;20045;-80
2023/12/17 06:17:17;;;;;;;16.15;9.80;;;9.30;99.90;;;;;;5054050;28;20147;-79
2023/12/17 06:19:44;;;;;;;18.35;9.70;;;9.20;99.90;;;;;;5053020;28;20047;-80
2023/12/17 06:22:11;;;;;;;16.15;10.00;;;9.30;99.90;;;;;;5050252;28;20052;-80
2023/12/17 06:24:37;;;;;;;15.10;9.48;;;9.20;99.90;;;;;;5053515;28;20412;-79
2023/12/17 06:27:03;;;;;;;17.38;9.13;;;9.20;99.90;;;;;;5052741;28;20117;-80
2023/12/17 06:29:29;;;;;;;15.60;8.85;;;9.20;99.90;;;;;;5054346;28;20115;-80
2023/12/17 06:31:55;;;;;;;18.35;9.68;;;9.20;99.90;;;;;;5046460;28;20073;-80
2023/12/17 06:34:21;;;;;;;14.52;9.25;;;9.20;99.90;;;;;;5052707;28;20080;-80
2023/12/17 06:36:47;;;;;;;13.63;9.05;;;9.20;99.90;;;;;;5052647;28;20064;-79
2023/12/17 06:39:12;;;;;;;16.85;9.40;;;9.10;99.90;;;;;;5052494;28;20045;-80
2023/12/17 06:41:48;;;;;;;18.05;9.13;;;9.10;99.90;;;;;;5048529;28;20045;-79
2023/12/17 06:44:15;;;;;;;16.10;8.48;;;9.10;99.90;;;;;;5052606;28;20373;-80
2023/12/17 06:46:40;;;;;;;14.30;7.57;;;9.20;99.90;;;;;;5051107;28;20529;-80
2023/12/17 06:49:06;;;;;;;13.65;7.32;;;9.10;99.90;;;;;;5051926;28;20025;-80
2023/12/17 06:51:31;;;;;;;12.77;6.18;;;9.10;99.90;;;;;;5049750;28;20078;-80
2023/12/17 06:53:57;;;;;;;11.95;6.47;;;9.20;99.90;;;;;;5053095;28;20505;-79
2023/12/17 06:56:23;;;;;;;14.55;6.80;;;9.10;99.90;;;;;;5047226;28;20051;-80
2023/12/17 06:58:48;;;;;;;10.30;6.32;;;9.20;99.90;;;;;;5076429;28;20412;-80
2023/12/17 07:01:14;;;;;;;11.93;6.90;;;9.20;99.90;;;;;;5052723;28;20041;-82
2023/12/17 07:03:39;;;;;;;20.33;6.72;;;9.10;99.90;;;;;;5052509;28;20048;-80
2023/12/17 07:06:10;;;;;;;11.73;7.22;;;9.20;99.90;;;;;;5028278;28;20061;-80
2023/12/17 07:08:37;;;;;;;15.40;6.43;;;9.10;99.90;;;;;;5052135;28;20036;-81
2023/12/17 07:11:02;;;;;;;17.15;6.72;;;9.10;99.90;;;;;;5069524;28;20416;-80
2023/12/17 07:13:29;;;;;;;13.43;6.05;;;9.10;99.90;;;;;;5051973;28;20048;-79
2023/12/17 07:15:55;;;;;;;14.13;7.05;;;9.20;99.90;;;;;;5051030;28;20500;-79
2023/12/17 07:18:20;;;;;;;16.60;6.57;;;9.10;99.90;;;;;;5052068;28;20116;-80
2023/12/17 07:20:47;;;;;;;13.57;6.82;;;9.10;99.90;;;;;;5046849;28;20041;-79
2023/12/17 07:23:13;;;;;;;14.80;6.68;;;9.10;99.90;;;;;;5048153;28;20040;-79
2023/12/17 07:25:39;;;;;;;13.63;6.97;;;9.10;99.90;;;;;;5044166;28;20405;-80
2023/12/17 07:28:04;;;;;;;13.68;7.20;;;9.20;99.90;;;;;;5050448;28;20064;-79
2023/12/17 07:30:31;;;;;;;14.13;6.30;;;9.10;99.90;;;;;;5051947;28;20128;-79
2023/12/17 07:32:57;;;;;;;12.55;7.15;;;9.10;99.90;;;;;;5051471;28;20037;-79
2023/12/17 07:35:22;;;;;;;14.82;6.78;;;9.10;99.90;;;;;;5049881;28;20085;-79
2023/12/17 07:37:48;;;;;;;14.98;7.85;;;9.10;99.90;;;;;;5052293;28;20401;-79
2023/12/17 07:40:14;;;;;;;14.63;7.47;;;9.10;99.90;;;;;;5051885;28;20183;-79
2023/12/17 07:42:40;;;;;;;17.15;7.55;;;9.10;99.90;;;;;;5052899;28;20036;-79
2023/12/17 07:45:06;;;;;;;12.55;6.47;;;9.10;99.90;;;;;;5050670;28;20093;-79
2023/12/17 07:47:32;;;;;;;15.30;7.70;;;9.10;99.90;;;;;;5044965;28;20159;-79
2023/12/17 07:49:58;;;;;;;18.00;8.05;;;9.10;99.90;;;;;;5051749;28;20071;-79
2023/12/17 07:52:23;;;;;;;18.77;8.18;;;9.10;99.90;;;;;;5051800;28;20048;-80
2023/12/17 07:54:49;;;;;;;17.95;7.22;;;9.00;99.90;;;;;;5051286;28;20068;-79
2023/12/17 07:57:15;;;;;;;14.68;7.85;;;9.00;99.90;;;;;;5051409;28;20106;-79
2023/12/17 07:59:40;;;;;;;16.08;7.55;;;9.30;99.90;;;;;;5051287;28;20044;-79
2023/12/17 08:02:06;;;;;;;14.57;7.38;;;9.10;99.90;;;;;;5050893;28;20057;-79
2023/12/17 08:04:34;;;;;;;17.27;7.72;;;9.00;99.90;;;;;;5035158;28;20055;-79
2023/12/17 08:07:00;;;;;;;15.52;7.95;;;9.00;99.90;;;;;;5048733;28;20032;-80
2023/12/17 08:09:25;;;;;;;17.63;8.70;;;9.00;99.90;;;;;;5049653;28;20040;-79
2023/12/17 08:11:51;;;;;;;18.05;8.50;;;9.00;99.90;;;;;;5049413;28;20035;-79
2023/12/17 08:14:16;;;;;;;20.02;9.20;;;9.00;99.90;;;;;;5047966;28;20067;-79
2023/12/17 08:16:43;;;;;;;13.85;8.68;;;8.90;99.90;;;;;;5084476;28;20056;-79
2023/12/17 08:19:09;;;;;;;17.00;8.23;;;9.00;99.90;;;;;;5076444;28;20045;-79
2023/12/17 08:21:35;;;;;;;18.20;8.80;;;9.00;99.90;;;;;;5050826;28;20476;-80
2023/12/17 08:24:00;;;;;;;18.60;8.25;;;9.00;99.90;;;;;;5083868;28;20033;-80
2023/12/17 08:26:26;;;;;;;17.58;9.13;;;8.90;99.90;;;;;;5051165;28;20063;-80
2023/12/17 08:28:51;;;;;;;20.73;9.68;;;9.00;99.90;;;;;;5050529;28;20376;-80
2023/12/17 08:31:17;;;;;;;17.42;8.38;;;9.00;99.90;;;;;;5051011;28;20062;-80
2023/12/17 08:33:44;;;;;;;18.98;9.15;;;8.90;99.90;;;;;;5052094;28;20051;-80
2023/12/17 08:36:10;;;;;;;20.23;10.77;;;8.90;99.90;;;;;;5051738;28;20416;-79
2023/12/17 08:38:36;;;;;;;19.35;10.63;;;8.90;99.90;;;;;;5045039;28;20045;-80
2023/12/17 08:41:01;;;;;;;20.05;10.98;;;9.00;99.90;;;;;;5052682;28;20049;-80
2023/12/17 08:43:27;;;;;;;23.83;11.48;;;9.00;99.90;;;;;;5048741;28;20301;-79
2023/12/17 08:45:53;;;;;;;25.75;13.32;;;8.90;99.90;;;;;;5045808;28;20099;-79
2023/12/17 08:48:18;;;;;;;21.40;12.35;;;9.00;99.90;;;;;;5051731;28;20032;-80
2023/12/17 08:50:44;;;;;;;25.33;13.13;;;9.10;99.90;;;;;;5047576;28;20100;-79
2023/12/17 08:53:09;;;;;;;22.17;13.43;;;9.00;99.90;;;;;;5050137;28;20036;-80
2023/12/17 08:55:36;;;;;;;22.13;13.68;;;9.00;99.90;;;;;;5051132;28;20041;-80
2023/12/17 08:58:01;;;;;;;24.15;12.95;;;9.00;99.90;;;;;;5049429;28;20044;-80
2023/12/17 09:00:27;;;;;;;24.60;13.80;;;9.00;99.90;;;;;;5050522;28;20043;-80
2023/12/17 09:02:52;;;;;;;25.23;14.68;;;9.00;99.90;;;;;;5049772;28;20175;-81
2023/12/17 09:05:18;;;;;;;26.48;15.18;;;9.10;99.90;;;;;;5049233;28;20029;-79
2023/12/17 09:07:44;;;;;;;25.48;14.98;;;9.10;99.90;;;;;;5050483;28;20029;-80
2023/12/17 09:10:10;;;;;;;28.15;14.68;;;9.00;99.90;;;;;;5050224;28;20133;-80
2023/12/17 09:12:36;;;;;;;25.77;14.27;;;9.20;99.90;;;;;;5047290;28;20667;-79
2023/12/17 09:15:01;;;;;;;33.83;16.05;;;9.10;99.90;;;;;;5046787;28;20037;-79
2023/12/17 09:17:27;;;;;;;29.77;15.98;;;9.10;99.90;;;;;;5050320;28;20037;-80
2023/12/17 09:19:53;;;;;;;32.33;15.85;;;9.20;99.90;;;;;;5024389;28;20050;-80
2023/12/17 09:22:18;;;;;;;27.58;15.18;;;9.10;99.90;;;;;;5049778;28;20036;-80
2023/12/17 09:24:44;;;;;;;27.70;14.25;;;9.20;99.90;;;;;;5048448;28;20494;-80
2023/12/17 09:27:10;;;;;;;31.02;14.55;;;9.20;99.90;;;;;;5042899;28;20030;-79
2023/12/17 09:29:35;;;;;;;30.85;13.13;;;9.20;99.90;;;;;;5071315;28;20037;-80
2023/12/17 09:32:01;;;;;;;23.92;13.15;;;9.20;99.90;;;;;;5075000;28;20588;-79
2023/12/17 09:34:26;;;;;;;24.48;12.73;;;9.30;99.90;;;;;;5047892;28;20036;-78
2023/12/17 09:36:52;;;;;;;27.88;12.60;;;9.30;99.90;;;;;;5049011;28;20427;-79
2023/12/17 09:39:18;;;;;;;22.80;12.90;;;9.30;99.90;;;;;;5049627;28;20033;-80
2023/12/17 09:41:43;;;;;;;29.50;12.73;;;9.60;99.90;;;;;;5046109;28;20037;-79
2023/12/17 09:44:09;;;;;;;27.10;12.27;;;9.30;99.90;;;;;;5049363;28;20099;-79
2023/12/17 09:46:35;;;;;;;35.05;13.63;;;9.30;99.90;;;;;;5049755;28;20093;-79
2023/12/17 09:49:01;;;;;;;23.83;11.75;;;9.30;99.90;;;;;;5043056;28;20042;-79
2023/12/17 09:51:28;;;;;;;22.13;11.40;;;9.40;99.90;;;;;;5049698;28;20072;-80
2023/12/17 09:53:57;;;;;;;26.42;11.30;;;9.30;99.90;;;;;;5049144;28;20110;-79
2023/12/17 09:56:24;;;;;;;23.70;12.20;;;9.40;99.90;;;;;;5044042;28;20079;-80
2023/12/17 09:58:50;;;;;;;25.20;11.65;;;9.40;99.90;;;;;;5077584;28;20066;-79
2023/12/17 10:01:16;;;;;;;24.52;11.23;;;9.40;99.90;;;;;;5080673;28;20408;-79
2023/12/17 10:03:41;;;;;;;21.70;10.95;;;9.40;99.90;;;;;;5047543;28;20029;-79
2023/12/17 10:06:07;;;;;;;23.65;11.70;;;9.40;99.90;;;;;;5047881;28;20084;-79
2023/12/17 10:08:34;;;;;;;29.60;11.68;;;9.40;99.90;;;;;;5047253;28;20152;-79
2023/12/17 10:11:00;;;;;;;21.63;10.98;;;9.50;99.90;;;;;;5048036;28;20032;-80
2023/12/17 10:13:26;;;;;;;22.50;11.05;;;9.40;99.90;;;;;;5049303;28;20053;-78
2023/12/17 10:15:55;;;;;;;27.48;11.82;;;9.50;99.90;;;;;;5031958;28;20041;-79
2023/12/17 10:18:22;;;;;;;24.73;11.70;;;9.50;99.90;;;;;;5042456;28;20386;-79
2023/12/17 10:20:49;;;;;;;24.70;12.27;;;9.40;99.90;;;;;;5044827;28;20041;-79
2023/12/17 10:23:15;;;;;;;23.33;13.57;;;9.50;99.90;;;;;;5076214;28;20075;-79
2023/12/17 10:25:41;;;;;;;23.08;12.07;;;9.50;99.90;;;;;;5032485;28;20152;-79
2023/12/17 10:28:10;;;;;;;27.95;12.90;;;9.40;99.90;;;;;;5047869;28;20055;-79
2023/12/17 10:30:36;;;;;;;25.20;13.55;;;9.40;99.90;;;;;;5044876;28;20518;-79
2023/12/17 10:33:03;;;;;;;24.23;13.10;;;9.40;99.90;;;;;;5048956;28;20720;-79
2023/12/17 10:35:30;;;;;;;24.50;13.48;;;9.50;99.90;;;;;;5026930;28;20044;-80
2023/12/17 10:38:01;;;;;;;25.50;14.60;;;9.40;99.90;;;;;;5048695;28;20087;-79
2023/12/17 10:40:28;;;;;;;25.75;14.75;;;9.40;99.90;;;;;;5044054;28;20052;-79
2023/12/17 10:42:56;;;;;;;25.58;16.77;;;9.40;99.90;;;;;;5045174;28;20037;-80
2023/12/17 10:45:22;;;;;;;29.23;16.88;;;9.40;99.90;;;;;;5049628;28;20037;-79
2023/12/17 10:47:59;;;;;;;32.10;17.17;;;9.40;99.90;;;;;;5049107;28;20504;-79
2023/12/17 10:50:26;;;;;;;34.05;18.45;;;9.50;99.90;;;;;;5084144;28;20063;-79
2023/12/17 10:52:52;;;;;;;30.25;18.58;;;9.40;99.90;;;;;;5069305;28;20068;-79
2023/12/17 10:55:19;;;;;;;33.22;18.67;;;9.40;99.90;;;;;;5086825;28;20037;-79
2023/12/17 10:58:05;;;;;;;34.45;19.20;;;9.40;99.90;;;;;;5035364;28;20036;-79
2023/12/17 11:00:33;;;;;;;32.20;18.83;;;9.50;99.90;;;;;;5056729;28;20420;-79
2023/12/17 11:03:02;;;;;;;33.65;17.63;;;9.50;99.90;;;;;;5082289;28;20048;-79
2023/12/17 11:05:28;;;;;;;31.85;18.15;;;9.50;99.90;;;;;;5036566;28;20029;-79
2023/12/17 11:07:53;;;;;;;28.30;17.70;;;9.60;99.90;;;;;;5043114;28;20087;-79
2023/12/17 11:10:19;;;;;;;34.40;18.27;;;9.50;99.90;;;;;;5055682;28;20078;-79
2023/12/17 11:12:46;;;;;;;29.90;18.58;;;9.40;99.90;;;;;;5084040;28;20523;-80
2023/12/17 11:15:12;;;;;;;32.50;18.27;;;9.50;99.90;;;;;;5034433;28;20091;-79
2023/12/17 11:17:38;;;;;;;34.80;18.65;;;9.50;99.90;;;;;;5048111;28;20052;-79
2023/12/17 11:20:05;;;;;;;28.70;17.80;;;9.50;99.90;;;;;;5045754;28;20507;-79
2023/12/17 11:22:35;;;;;;;31.50;18.38;;;9.50;99.90;;;;;;5052012;28;20120;-79
2023/12/17 11:25:01;;;;;;;28.27;17.10;;;9.50;99.90;;;;;;5050781;28;20041;-80
2023/12/17 11:27:26;;;;;;;29.42;18.75;;;9.60;99.90;;;;;;5050011;28;20044;-79
2023/12/17 11:29:55;;;;;;;27.23;16.85;;;9.60;99.90;;;;;;5073571;28;20042;-79
2023/12/17 11:32:21;;;;;;;26.40;16.73;;;9.50;99.90;;;;;;5051311;28;20124;-80
2023/12/17 11:34:49;;;;;;;28.73;16.42;;;9.60;99.90;;;;;;5051238;28;20040;-79
2023/12/17 11:37:20;;;;;;;24.10;15.18;;;9.60;99.90;;;;;;5050363;28;20062;-79
2023/12/17 11:39:48;;;;;;;24.60;15.35;;;9.60;99.90;;;;;;5052551;28;20465;-79
2023/12/17 11:42:16;;;;;;;23.48;15.25;;;9.60;99.90;;;;;;5047821;28;20037;-79
2023/12/17 11:44:46;;;;;;;26.40;15.32;;;9.60;99.90;;;;;;5047898;28;20045;-79
2023/12/17 11:47:12;;;;;;;25.35;15.30;;;9.60;99.90;;;;;;5049451;28;20040;-78
2023/12/17 11:49:38;;;;;;;27.08;14.98;;;9.70;99.90;;;;;;5081425;28;20029;-79
2023/12/17 11:52:14;;;;;;;22.70;14.57;;;9.60;99.90;;;;;;5049335;28;20462;-79
2023/12/17 11:54:42;;;;;;;27.02;15.63;;;9.60;99.90;;;;;;5049342;28;20040;-80
2023/12/17 11:57:21;;;;;;;23.58;15.18;;;9.60;99.90;;;;;;5039467;28;20049;-79
2023/12/17 11:59:47;;;;;;;22.10;14.55;;;9.60;99.90;;;;;;5044825;28;20049;-79
2023/12/17 12:02:17;;;;;;;24.17;14.40;;;9.60;99.90;;;;;;5048880;28;20099;-80
2023/12/17 12:04:44;;;;;;;24.63;14.68;;;9.50;99.90;;;;;;5048959;28;20037;-80
2023/12/17 12:07:11;;;;;;;23.65;14.20;;;9.50;99.90;;;;;;5050039;28;20040;-79
2023/12/17 12:09:37;;;;;;;24.88;15.20;;;9.60;99.90;;;;;;5034882;28;20120;-79
2023/12/17 12:12:15;;;;;;;25.10;15.32;;;9.70;99.90;;;;;;5051248;28;20488;-79
2023/12/17 12:14:43;;;;;;;22.98;14.70;;;9.60;99.90;;;;;;5049023;28;20045;-80
2023/12/17 12:17:41;;;;;;;22.60;14.88;;;9.70;99.90;;;;;;5049080;28;20037;-80
2023/12/17 12:20:09;;;;;;;24.50;15.48;;;9.60;99.90;;;;;;5049797;28;20073;-79
2023/12/17 12:22:35;;;;;;;22.42;14.10;;;9.60;99.90;;;;;;5031916;28;20416;-79
2023/12/17 12:25:02;;;;;;;25.02;15.50;;;9.70;99.90;;;;;;5030259;28;20052;-79
2023/12/17 12:27:28;;;;;;;24.52;15.07;;;9.80;99.90;;;;;;5051431;28;20033;-80
2023/12/17 12:29:55;;;;;;;23.17;15.38;;;9.80;99.90;;;;;;5042952;28;20126;-80
2023/12/17 12:32:28;;;;;;;22.52;14.18;;;9.90;99.90;;;;;;5045671;28;20033;-80
2023/12/17 12:34:55;;;;;;;20.92;14.15;;;9.90;99.90;;;;;;5034061;28;20436;-81
2023/12/17 12:37:39;;;;;;;22.92;14.45;;;9.80;99.90;;;;;;5044406;28;20170;-79